Página principal
METAR-TAF:

METAR-TAF

Aeroportos :

Yap, Micronésia

latitude: 09-29N, longitude: 138-05E, altura: 28 m

Observação actual do tempo

O boletim foi feito há 40 minutos, às 20:55 UTC
Vento 5 kt com direcção variável
Temperatura 25°C
Humidade 89%
Pressão 1011 hPa
Visibilidade: 19.3 km
Poucas nuvensa uma altura de 1600 ft
Nuvens fragmentadasa uma altura de 13000 ft
Nuvens fragmentadasa uma altura de 30000 ft

METAR: PTYA 192055Z VRB05KT 12SM FEW016 BKN130 BKN300 25/23 A2984 RMK SLP105 8/171 T02510234 53007

Hora: 07:35 (21:35 UTC)

Previsão

O boletim foi feito há 4 horas e 15 minutos, às 17:20 UTC
Previsão válida de 19 às 18 UTC a 20 às 18 UTC
Vento 11 kt de este
Visibilidade: 10 km
Poucas nuvensa uma altura de 1600 ft
Poucas nuvensa uma altura de 4000 ft

TAF: PTYA 191720Z 1918/2018 08011KT P6SM FEW016 FEW040

Observações e previsões do tempo de mais de 4000 aeroportos (mensagens METAR e TAF).

As estações disponíveis são os pontos amarelos e vermelhos sobre o mapa.

Mova o rato sobre o mapa para ver o nome da estação.

Depois clique no ponto para visualizar as observações e previsões meteorológicas.

Para alterar o mapa : clique nos botões verdes com uma cruz preta para aumentar o zoom; no botão verde com uma pitada de zoom; ou nas setas verdes para mapas adjacentes.


METAR-TAF: